AirNav   ATP
 
 1285 users online  

CN99 Del Mar Farms Airport
Patterson, California, USA

GOING TO PATTERSON?


FAA INFORMATION EFFECTIVE 06 DECEMBER 2018

Location

FAA Identifier: CN99
Lat/Long: 37-32-47.2000N / 121-09-30.8800W
37-32.786667N / 121-09.514667W
37.5464444 / -121.1585778
(estimated)
Elevation: 65 ft. / 20 m (estimated)
Time zone: UTC -8 (UTC -7 during Daylight Saving Time)
Zip code: 95363

Airport Operations

Airport use: Private use. Permission required prior to landing
Activation date: 11/2014
Control tower: no
ARTCC: OAKLAND CENTER
FSS: RANCHO MURIETA FLIGHT SERVICE STATION
Attendance: 
Wind indicator: yes
Segmented circle: no

Airport Communications

WX ASOS at MOD (11 nm NE): 127.7 (209-572-0914)
WX AWOS-3 at TCY (16 nm NW): 118.375 (209-831-4335)

Nearby radio navigation aids

VOR radial/distance  VOR name  Freq  Var
MODr226/10.7MODESTO VOR/DME114.6017E
LINr176/32.5LINDEN VOR/DME114.8017E
SJCr059/38.8SAN JOSE VOR/DME114.1016E

 
NDB name  Hdg/Dist  Freq  Var  ID
TRACY108/16.220315ETCY - -.-. -.--

Airport Services

Runway Information

Runway 12/30

Dimensions: 2873 x 34 ft. / 876 x 10 m
Surface: concrete
RUNWAY 12  RUNWAY 30
Latitude: 37-32.954500N37-32.617667N
Longitude: 121-09.724167W121-09.306167W
Elevation: 64.0 ft.61.0 ft.
Traffic pattern: leftleft
Touchdown point: yes, no lightsyes, no lights

Airport Ownership and Management from official FAA records

Ownership: Privately-owned
Owner: JON MARING
P.O. BOX 99
WESTLEY, CA 95387
Phone 209-531-3711
Manager: JON MARING
P.O. BOX 99
WESTLEY, CA 95387
Phone 209-894-5555

Airport Operational Statistics

Aircraft based on the field: 4
Single engine airplanes: 3
Multi engine airplanes: 1
    

Additional Remarks

FOR CD CTC NORCAL APCH AT 916-361-0516.

Instrument Procedures

There are no published instrument procedures at CN99.

Some nearby airports with instrument procedures:

KMOD - Modesto City-County Airport-Harry Sham Field (11 nm NE)
KTCY - Tracy Municipal Airport (16 nm NW)
O27 - Oakdale Airport (21 nm NE)
KSCK - Stockton Metropolitan Airport (21 nm N)
C83 - Byron Airport (28 nm NW)
 
Loc | Ops | Rwys | IFR | FBO | Links
Com | Nav | Svcs | Stats | Notes


 
Aerial photo
No photo
 
Airport distance calculator
Flying to Del Mar Farms Airport? Find the distance to fly.

From to CN99

Sunrise and sunset
Times for 14-Dec-2018
 Local
(UTC-8)
 Zulu
(UTC)
Morning civil twilight06:4314:43
Sunrise07:1315:13
Sunset16:4600:46
Evening civil twilight17:1501:15

Current date and time
Zulu (UTC)  14-Dec-2018 20:53:11
Local (UTC-8)  14-Dec-2018 12:53:11
 
METAR
KMOD 
11nm NE 
141953Z 25003KT 4SM HZ CLR 12/07 A3011 RMK AO2 SLP197 T01170072
KTCY 
16nm NW 
142035Z AUTO 06008KT 4SM HZ FEW060 11/09 A3007 RMK A01
KSCK 
20nm N 
141955Z 12006KT 3SM HZ CLR 11/07 A3009 RMK AO2 SLP189 T01110072
TAF
KMOD 
11nm NE 
141739Z 1418/1518 16006KT 4SM BR OVC150 TEMPO 1418/1420 2SM BR FM142200 15010KT 5SM HZ OVC100 FM150200 14005KT 3SM BR VCSH FEW030 OVC050
NOTAMs
Click for the latest NOTAMs
NOTAMs are issued by the DoD/FAA and will open in a separate window not controlled by AirNav.

 

 
 

Would you like to see your business listed on this page?

 If your business provides an interesting product or service to pilots, flight crews, aircraft, or users of the Del Mar Farms Airport, you should consider listing it here.  To start the listing process, click on the button below
 
Add a business
 

Other Pages about Del Mar Farms Airport

Update a link
 
Copyright © AirNav, LLC. All rights reserved. Privacy Policy  Contact